PAKTPAWG

Guest
Details From PAKT - KETCHIKAN INTL
To PAWG - WRANGELL
Flight Number -
Tags generated
Created
Modified
Stats Distance 74 nm / 138 km
Max Altitude 3,400 ft / 1,036 m
Waypoints 3
Social Downloads 1
Likes 0
Share VATSIM

Download

Looking for another format? Having issues loading an existing format? Contact us
Advertisement - Login to hide

Notes

Basic altitude profile: - Ascent Rate: 800ft/min - Ascent Speed: 120kts - Cruise Altitude: 3200ft - Cruise Speed: 210kts - Descent Rate: 900ft/min - Descent Speed: 110kts Options: - Use NATs: yes - Use PACOTS: yes - Use low airways: yes - Use high airways: yes

Route

PAKT GESTI PAWG

ID Type Via Altitude Latitude Longitude Leg Dist Tot Dist Heading (true) Name
O PAKT APT - 0 ft / 0 m 55.35554˚ -131.71374˚ - 0 nm - KETCHIKAN INTL
GESTI FIX - 3,400 ft / 1,036 m 55.43263˚ -131.96400˚ 9 nm 9 nm 299° / 298° -
O PAWG APT - 0 ft / 0 m 56.48432˚ -132.36983˚ 64 nm 74 nm 348° / 348° WRANGELL

Altitude Profile

Advertisement - Login to hide

PAKT

Details ICAO PAKT (KTN)
Name KETCHIKAN INTL
Region USA (Alaska)
Timezone Unknown (UTC+0.0)
Stats Elevation 88 ft / 27 m (AMSL)
Location 55.355545° -131.713737°
Runways 1
Magnetic Variation 18.534° E

METAR

PAKT 141453Z AUTO 14018G25KT 5SM -RA BR FEW018 SCT025 OVC036 08/07 A3005

Decode

TAF

TAF AMD PAKT 141419Z 1414/1512 14020G30KT 3SM RA BR FEW021 BKN035 OVC050 WS020/16055KT FM142100 15015KT 4SM -SHRA BR OVC025 FM150200 16009KT 6SM -SHRA BR OVC050 FM150700 17010KT 4SM -SHRA BR SCT015 BKN025 OVC035 AMD LTD TO CLD VIS AND WIND 1412/1415

Decode

Departure Runways

ID Width Length Bearing (true) Bearing (mag) Surface Threshold Offset Overrun Length
11 150 ft / 46 m 7,485 ft / 2,281 m 135.66° 117.13° Asphalt 0 ft / 0 m 200 ft / 61 m
29 150 ft / 46 m 7,485 ft / 2,281 m 315.68° 297.15° Asphalt 0 ft / 0 m 100 ft / 30 m

PAWG

Details ICAO PAWG (WRG)
Name WRANGELL
Region USA (Alaska)
Timezone America/Juneau (UTC-9.0)
Stats Elevation 44 ft / 13 m (AMSL)
Location 56.484324° -132.369832°
Runways 1
Magnetic Variation 18.809° E

METAR

PAWG 141456Z 11018G27KT 10SM -RA SCT030 OVC035 09/06 A2999

Decode

TAF

PAWG 141140Z 1412/1512 07010KT P6SM -RA SCT040 OVC070 WS020/15050KT TEMPO 1412/1416 07010G20KT SCT015 BKN025 OVC035 FM141600 11012G22KT 3SM RA BR OVC015 WS020/15040KT FM142100 14010KT 4SM RA BR OVC015 FM150300 17008KT 5SM -SHRA BR SCT015 OVC025 FM150700 14007KT 5SM -SHRA BR SCT015 OVC025 AMD LTD TO CLD VIS AND WIND 1412/1415

Decode

Destination Runways

ID Width Length Bearing (true) Bearing (mag) Surface Threshold Offset Overrun Length
10 150 ft / 46 m 5,983 ft / 1,824 m 121.43° 102.62° Asphalt 0 ft / 0 m 0 ft / 0 m
28 150 ft / 46 m 5,983 ft / 1,824 m 301.45° 282.64° Asphalt 0 ft / 0 m 0 ft / 0 m

Approach Navaids

Runway Type Ident Frequency Range Bearing (true) Bearing (mag) Slope Elevation
10 Localiser IRGL 108.50 MHz 18 nm / 33 km 112.18° 93.37° - 40 ft / 12 m (AMSL)
10 DME IRGL 108.50 MHz 18 nm / 33 km - - - 58 ft / 18 m (AMSL)

Popular Alternatives